Terminal Aerodrome Forecast
Issued by NWS Twin Cities, MN

Home | Current Version | Previous Version | Text Only | Print | Product List | Glossary On
Versions: 1 2 3 4 5 6 7 8 9 10 11 12 13 14
000
FTUS43 KMPX 242320
TAFSTC
TAF
KSTC 242320Z 2500/2524 08005KT 4SM -RA BR SCT009 OVC014
      TEMPO 2500/2504 2SM BR BKN009
     FM250400 05005KT 3SM -RA BR OVC009
     FM250900 02003KT 3SM -RA BR OVC005
     FM251800 03004KT 6SM BR OVC015
     FM252300 26009KT P6SM SCT015 OVC030=

USA.gov is the U.S. government's official web portal to all federal, state and local government web resources and services.